Time;durP1;ratioP1;P1;durP2;ratioP2;P2;SDS_P1;SDS_P2;PMS_P1;PMS_P2;Temp;Humidity;BMP_temperature;BMP_pressure;BME280_temperature;BME280_humidity;BME280_pressure;Samples;Min_cycle;Max_cycle;Signal;HPM_P1;HPM_P2
2022/11/27 00:00:16;;;;;;;18.63;13.32;;;5.10;99.90;;;;;;5081098;28;20519;-59
2022/11/27 00:03:02;;;;;;;23.45;14.43;;;5.10;99.90;;;;;;5063497;28;20032;-57
2022/11/27 00:05:54;;;;;;;23.58;14.63;;;5.00;99.90;;;;;;5060996;28;20138;-58
2022/11/27 00:08:40;;;;;;;23.90;15.18;;;5.00;99.90;;;;;;5080608;28;20020;-56
2022/11/27 00:11:29;;;;;;;22.50;14.43;;;5.00;99.90;;;;;;5076557;28;20020;-55
2022/11/27 00:14:16;;;;;;;18.17;12.38;;;5.00;99.90;;;;;;5087131;28;20028;-61
2022/11/27 00:17:02;;;;;;;20.10;11.85;;;5.00;99.90;;;;;;5085793;28;20032;-56
2022/11/27 00:19:48;;;;;;;15.27;11.85;;;5.00;99.90;;;;;;5069300;28;20035;-58
2022/11/27 00:22:34;;;;;;;18.40;12.18;;;4.90;99.90;;;;;;5078379;28;20189;-58
2022/11/27 00:25:20;;;;;;;36.40;22.40;;;4.80;99.90;;;;;;5077687;28;20087;-55
2022/11/27 00:28:05;;;;;;;57.10;33.08;;;4.80;99.90;;;;;;5063238;28;20040;-56
2022/11/27 00:30:51;;;;;;;32.40;19.27;;;4.80;99.90;;;;;;5078547;28;20047;-52
2022/11/27 00:33:37;;;;;;;22.17;13.65;;;4.80;99.90;;;;;;5080430;28;20029;-57
2022/11/27 00:36:24;;;;;;;19.70;13.00;;;4.80;99.90;;;;;;5069599;28;20028;-56
2022/11/27 00:39:10;;;;;;;18.98;13.73;;;4.80;99.90;;;;;;5090879;28;20051;-58
2022/11/27 00:41:56;;;;;;;25.02;15.55;;;4.80;99.90;;;;;;5080270;28;20025;-59
2022/11/27 00:44:42;;;;;;;27.90;15.90;;;4.70;99.90;;;;;;5079678;28;20035;-57
2022/11/27 00:47:28;;;;;;;25.90;17.08;;;4.70;99.90;;;;;;5092891;28;20035;-59
2022/11/27 00:50:14;;;;;;;29.67;17.85;;;4.80;99.90;;;;;;5091461;28;20577;-55
2022/11/27 00:53:00;;;;;;;53.28;29.58;;;4.80;99.90;;;;;;5094012;28;20092;-59
2022/11/27 00:55:46;;;;;;;50.15;29.38;;;4.80;99.90;;;;;;5078536;28;20061;-56
2022/11/27 00:58:33;;;;;;;32.50;20.30;;;4.80;99.90;;;;;;5083537;28;20476;-57
2022/11/27 01:01:24;;;;;;;33.28;18.83;;;4.80;99.90;;;;;;5089734;28;20040;-58
2022/11/27 01:04:14;;;;;;;36.15;21.67;;;4.70;99.90;;;;;;5080127;28;20031;-61
2022/11/27 01:07:00;;;;;;;33.35;21.27;;;4.80;99.90;;;;;;5082968;28;20028;-55
2022/11/27 01:09:46;;;;;;;37.35;24.63;;;4.80;99.90;;;;;;5070459;28;20103;-56
2022/11/27 01:12:32;;;;;;;38.25;23.13;;;4.70;99.90;;;;;;5073442;28;20037;-59
2022/11/27 01:15:18;;;;;;;35.45;24.60;;;4.70;99.90;;;;;;5089003;28;20058;-59
2022/11/27 01:18:04;;;;;;;35.35;23.88;;;4.80;99.90;;;;;;5068996;28;20497;-53
2022/11/27 01:20:53;;;;;;;34.60;22.60;;;4.70;99.90;;;;;;5070621;28;20040;-56
2022/11/27 01:23:39;;;;;;;41.53;23.48;;;4.70;99.90;;;;;;5069174;28;20021;-56
2022/11/27 01:26:26;;;;;;;39.38;23.95;;;4.70;99.90;;;;;;5073896;28;20017;-56
2022/11/27 01:29:12;;;;;;;31.33;23.33;;;4.70;99.90;;;;;;5081100;28;20358;-55
2022/11/27 01:31:58;;;;;;;36.50;23.40;;;4.80;99.90;;;;;;5080368;28;20028;-55
2022/11/27 01:34:44;;;;;;;39.17;23.02;;;4.80;99.90;;;;;;5069234;28;20024;-54
2022/11/27 01:37:30;;;;;;;36.80;21.25;;;4.70;99.90;;;;;;5078418;28;20032;-56
2022/11/27 01:40:16;;;;;;;30.83;19.77;;;4.70;99.90;;;;;;5086930;28;20067;-54
2022/11/27 01:43:02;;;;;;;33.83;20.38;;;4.70;99.90;;;;;;5063646;28;20094;-59
2022/11/27 01:45:48;;;;;;;34.10;20.45;;;4.70;99.90;;;;;;5073859;28;20028;-58
2022/11/27 01:48:34;;;;;;;35.65;21.75;;;4.70;99.90;;;;;;5090993;28;20050;-56
2022/11/27 01:51:23;;;;;;;39.63;22.42;;;4.60;99.90;;;;;;5092716;28;20647;-56
2022/11/27 01:54:10;;;;;;;33.50;21.33;;;4.60;99.90;;;;;;5072592;28;20033;-55
2022/11/27 01:57:01;;;;;;;36.92;23.90;;;4.60;99.90;;;;;;5073158;28;20032;-57
2022/11/27 01:59:49;;;;;;;36.88;21.42;;;4.60;99.90;;;;;;5073799;28;20107;-54
2022/11/27 02:02:35;;;;;;;37.97;22.67;;;4.60;99.90;;;;;;5089713;28;20028;-55
2022/11/27 02:05:24;;;;;;;34.25;21.42;;;4.60;99.90;;;;;;5074068;28;20485;-55
2022/11/27 02:08:13;;;;;;;34.10;20.85;;;4.70;99.90;;;;;;5087854;28;20044;-53
2022/11/27 02:11:13;;;;;;;30.75;19.20;;;5.10;99.90;;;;;;5073019;28;20024;-56
2022/11/27 02:14:07;;;;;;;33.47;18.92;;;5.10;99.90;;;;;;5074324;28;20024;-55
2022/11/27 02:16:53;;;;;;;36.35;18.55;;;5.00;99.90;;;;;;5084814;28;20055;-56
2022/11/27 02:20:00;;;;;;;25.83;16.98;;;4.90;99.90;;;;;;5087337;28;20025;-60
2022/11/27 02:23:23;;;;;;;27.58;17.27;;;4.80;99.90;;;;;;5073377;28;20033;-57
2022/11/27 02:26:42;;;;;;;26.13;15.52;;;4.70;99.90;;;;;;5068465;28;20104;-57
2022/11/27 02:29:32;;;;;;;25.20;17.38;;;4.70;99.90;;;;;;5065113;28;20069;-51
2022/11/27 02:32:37;;;;;;;23.45;14.88;;;4.60;99.90;;;;;;5087664;28;20388;-55
2022/11/27 02:35:44;;;;;;;23.10;15.55;;;4.60;99.90;;;;;;5091062;28;20081;-55
2022/11/27 02:38:38;;;;;;;21.50;14.60;;;4.60;99.90;;;;;;5076618;28;20021;-57
2022/11/27 02:41:40;;;;;;;22.25;15.07;;;4.50;99.90;;;;;;5089196;28;20020;-55
2022/11/27 02:44:30;;;;;;;20.02;14.43;;;4.60;99.90;;;;;;5071689;28;20059;-54
2022/11/27 02:47:18;;;;;;;24.10;14.50;;;4.50;99.90;;;;;;5080325;28;20039;-52
2022/11/27 02:50:07;;;;;;;22.73;14.88;;;4.60;99.90;;;;;;5069210;28;20377;-55
2022/11/27 02:52:59;;;;;;;24.02;14.45;;;4.60;99.90;;;;;;5088857;28;20465;-51
2022/11/27 02:55:47;;;;;;;22.60;15.00;;;4.70;99.90;;;;;;5077956;28;20047;-53
2022/11/27 02:58:36;;;;;;;19.33;13.55;;;4.60;99.90;;;;;;5075690;28;20020;-52
2022/11/27 03:01:23;;;;;;;23.90;14.45;;;4.60;99.90;;;;;;5072701;28;20037;-56
2022/11/27 03:04:15;;;;;;;21.15;14.23;;;4.60;99.90;;;;;;5072049;28;20028;-52
2022/11/27 03:07:06;;;;;;;20.23;13.82;;;4.60;99.90;;;;;;5071248;28;20021;-52
2022/11/27 03:09:58;;;;;;;19.55;13.20;;;4.60;99.90;;;;;;5071975;28;20624;-55
2022/11/27 03:12:47;;;;;;;19.65;12.95;;;4.60;99.90;;;;;;5073336;28;20040;-52
2022/11/27 03:16:02;;;;;;;21.67;13.77;;;4.60;99.90;;;;;;5090940;28;20097;-57
2022/11/27 03:19:00;;;;;;;23.75;14.55;;;4.60;99.90;;;;;;5058530;28;20503;-58
2022/11/27 03:22:00;;;;;;;18.85;13.23;;;4.60;99.90;;;;;;5080827;28;20033;-58
2022/11/27 03:24:48;;;;;;;22.20;14.15;;;4.50;99.90;;;;;;5084520;28;20065;-51
2022/11/27 03:27:42;;;;;;;23.02;15.00;;;4.50;99.90;;;;;;5070581;28;20093;-53
2022/11/27 03:30:28;;;;;;;20.58;13.82;;;4.40;99.90;;;;;;5076540;28;20377;-54
2022/11/27 03:33:14;;;;;;;23.27;13.82;;;4.40;99.90;;;;;;5080455;28;20059;-50
2022/11/27 03:36:00;;;;;;;27.88;13.90;;;4.40;99.90;;;;;;5084451;28;20020;-51
2022/11/27 03:38:47;;;;;;;23.10;13.80;;;4.40;99.90;;;;;;5087873;28;20032;-54
2022/11/27 03:41:33;;;;;;;24.63;15.63;;;4.40;99.90;;;;;;5091083;28;20238;-52
2022/11/27 03:44:19;;;;;;;22.48;15.27;;;4.40;99.90;;;;;;5071921;28;20028;-50
2022/11/27 03:47:40;;;;;;;26.88;15.35;;;4.40;99.90;;;;;;5071691;28;20020;-50
2022/11/27 03:50:44;;;;;;;21.73;15.73;;;4.30;99.90;;;;;;5070465;28;20078;-51
2022/11/27 03:53:51;;;;;;;36.20;21.70;;;4.30;99.90;;;;;;5081224;28;20040;-51
2022/11/27 03:56:41;;;;;;;41.10;23.80;;;4.30;99.90;;;;;;5089845;28;20028;-48
2022/11/27 03:59:31;;;;;;;38.15;22.10;;;4.20;99.90;;;;;;5072324;28;20043;-50
2022/11/27 04:02:33;;;;;;;29.05;17.80;;;4.30;99.90;;;;;;5070075;28;20083;-47
2022/11/27 04:05:19;;;;;;;23.98;16.65;;;4.20;99.90;;;;;;5069607;28;20031;-51
2022/11/27 04:08:05;;;;;;;23.40;15.93;;;4.20;99.90;;;;;;5071369;28;20030;-50
2022/11/27 04:10:51;;;;;;;24.30;17.20;;;4.20;99.90;;;;;;5070624;28;20381;-50
2022/11/27 04:13:37;;;;;;;29.45;16.90;;;4.20;99.90;;;;;;5070759;28;20020;-49
2022/11/27 04:16:23;;;;;;;27.52;17.95;;;4.20;99.90;;;;;;5078349;28;20036;-51
2022/11/27 04:19:09;;;;;;;26.13;18.40;;;4.20;99.90;;;;;;5089703;28;20032;-51
2022/11/27 04:21:55;;;;;;;25.35;18.02;;;4.10;99.90;;;;;;5077014;28;20043;-48
2022/11/27 04:24:41;;;;;;;29.02;18.30;;;4.10;99.90;;;;;;5069425;28;20690;-49
2022/11/27 04:27:27;;;;;;;25.85;18.38;;;4.10;99.90;;;;;;5072151;28;20060;-49
2022/11/27 04:30:13;;;;;;;24.60;16.83;;;4.10;99.90;;;;;;5069359;28;20025;-52
2022/11/27 04:32:59;;;;;;;23.90;17.90;;;4.10;99.90;;;;;;5089328;28;20644;-53
2022/11/27 04:35:45;;;;;;;26.17;18.38;;;4.10;99.90;;;;;;5070592;28;20071;-51
2022/11/27 04:38:31;;;;;;;28.67;18.38;;;4.10;99.90;;;;;;5069254;28;20028;-50
2022/11/27 04:41:17;;;;;;;24.65;17.67;;;4.10;99.90;;;;;;5069754;28;20033;-54
2022/11/27 04:44:03;;;;;;;23.30;17.45;;;4.10;99.90;;;;;;5069251;28;20467;-53
2022/11/27 04:46:49;;;;;;;26.90;17.95;;;4.00;99.90;;;;;;5069222;28;20381;-52
2022/11/27 04:49:35;;;;;;;26.65;17.15;;;4.00;99.90;;;;;;5077020;28;20022;-55
2022/11/27 04:52:21;;;;;;;26.92;18.85;;;4.00;99.90;;;;;;5090398;28;20054;-54
2022/11/27 04:55:07;;;;;;;34.22;16.98;;;4.00;99.90;;;;;;5090313;28;20491;-51
2022/11/27 04:57:53;;;;;;;27.98;18.50;;;3.90;99.90;;;;;;5089025;28;20025;-52
2022/11/27 05:00:39;;;;;;;24.17;16.85;;;3.90;99.90;;;;;;5073851;28;20060;-53
2022/11/27 05:03:25;;;;;;;27.02;16.95;;;3.80;99.90;;;;;;5070584;28;20037;-53
2022/11/27 05:06:11;;;;;;;25.40;17.95;;;3.90;99.90;;;;;;5070199;28;20029;-54
2022/11/27 05:09:00;;;;;;;28.15;17.33;;;3.80;99.90;;;;;;5055737;28;20021;-54
2022/11/27 05:11:46;;;;;;;25.33;17.20;;;3.80;99.90;;;;;;5069359;28;20021;-50
2022/11/27 05:14:32;;;;;;;25.05;17.25;;;3.80;99.90;;;;;;5075381;28;20025;-52
2022/11/27 05:17:18;;;;;;;27.48;17.50;;;3.80;99.90;;;;;;5091435;28;20024;-54
2022/11/27 05:20:05;;;;;;;23.40;17.83;;;3.70;99.90;;;;;;5092608;28;20059;-50
2022/11/27 05:22:51;;;;;;;24.20;16.65;;;3.70;99.90;;;;;;5093992;28;20039;-50
2022/11/27 05:25:37;;;;;;;24.75;16.17;;;3.70;99.90;;;;;;5077030;28;20028;-51
2022/11/27 05:28:24;;;;;;;22.83;16.42;;;3.70;99.90;;;;;;5093640;28;20028;-53
2022/11/27 05:31:10;;;;;;;22.90;16.35;;;3.70;99.90;;;;;;5076312;28;20063;-55
2022/11/27 05:33:56;;;;;;;22.92;16.40;;;3.70;99.90;;;;;;5073255;28;20032;-51
2022/11/27 05:36:43;;;;;;;20.13;14.10;;;3.60;99.90;;;;;;5085821;28;20024;-50
2022/11/27 05:39:29;;;;;;;24.83;14.90;;;3.60;99.90;;;;;;5098176;28;20063;-54
2022/11/27 05:42:14;;;;;;;20.42;15.32;;;3.70;99.90;;;;;;5113088;28;20036;-53
2022/11/27 05:45:00;;;;;;;23.75;16.58;;;3.70;99.90;;;;;;5086414;28;20037;-54
2022/11/27 05:47:46;;;;;;;23.98;15.90;;;3.70;99.90;;;;;;5072859;28;20021;-55
2022/11/27 05:50:32;;;;;;;22.00;14.98;;;3.70;99.90;;;;;;5089188;28;20082;-50
2022/11/27 05:53:18;;;;;;;22.20;14.68;;;3.60;99.90;;;;;;5083829;28;20032;-53
2022/11/27 05:56:07;;;;;;;19.60;14.90;;;3.60;99.90;;;;;;5073391;28;20115;-53
2022/11/27 05:58:53;;;;;;;24.40;14.40;;;3.50;99.90;;;;;;5084803;28;20044;-49
2022/11/27 06:01:39;;;;;;;21.83;14.52;;;3.50;99.90;;;;;;5087088;28;20035;-51
2022/11/27 06:04:25;;;;;;;20.58;14.77;;;3.50;99.90;;;;;;5092144;28;20392;-53
2022/11/27 06:07:11;;;;;;;24.42;15.13;;;3.50;99.90;;;;;;5059885;28;20493;-49
2022/11/27 06:09:57;;;;;;;20.02;14.52;;;3.50;99.90;;;;;;5074001;28;20453;-54
2022/11/27 06:12:43;;;;;;;21.40;14.18;;;3.60;99.90;;;;;;5074351;28;20428;-50
2022/11/27 06:15:29;;;;;;;22.15;14.05;;;3.50;99.90;;;;;;5076643;28;20674;-53
2022/11/27 06:18:15;;;;;;;23.58;15.20;;;3.50;99.90;;;;;;5077270;28;20032;-55
2022/11/27 06:21:08;;;;;;;23.52;15.98;;;3.50;99.90;;;;;;5083212;28;20063;-53
2022/11/27 06:23:55;;;;;;;23.88;15.38;;;3.50;99.90;;;;;;5073586;28;20513;-55
2022/11/27 06:26:41;;;;;;;23.98;14.95;;;3.50;99.90;;;;;;5087021;28;20032;-52
2022/11/27 06:29:27;;;;;;;27.70;17.95;;;3.50;99.90;;;;;;5092213;28;20028;-53
2022/11/27 06:32:13;;;;;;;26.38;17.15;;;3.40;99.90;;;;;;5073775;28;20108;-53
2022/11/27 06:34:59;;;;;;;30.27;18.75;;;3.40;99.90;;;;;;5058793;28;20082;-54
2022/11/27 06:37:45;;;;;;;24.55;16.55;;;3.50;99.90;;;;;;5093914;28;20101;-53
2022/11/27 06:40:31;;;;;;;25.52;16.77;;;3.50;99.90;;;;;;5091600;28;20077;-54
2022/11/27 06:43:17;;;;;;;25.27;15.90;;;3.50;99.90;;;;;;5096749;28;20029;-52
2022/11/27 06:46:04;;;;;;;20.48;14.40;;;3.50;99.90;;;;;;5097887;28;20115;-51
2022/11/27 06:48:52;;;;;;;21.77;15.05;;;3.50;99.90;;;;;;5098876;28;20025;-52
2022/11/27 06:51:38;;;;;;;21.95;14.88;;;3.60;99.90;;;;;;5075612;28;20024;-54
2022/11/27 06:54:24;;;;;;;21.33;13.73;;;3.60;99.90;;;;;;5071906;28;20103;-53
2022/11/27 06:57:13;;;;;;;22.52;13.52;;;3.60;99.90;;;;;;5063627;28;20035;-51
2022/11/27 06:59:59;;;;;;;19.67;13.55;;;3.60;99.90;;;;;;5092537;28;20020;-55
2022/11/27 07:02:45;;;;;;;25.38;14.88;;;3.60;99.90;;;;;;5105348;28;20059;-54
2022/11/27 07:05:31;;;;;;;22.27;13.40;;;3.70;99.90;;;;;;5073070;28;20021;-56
2022/11/27 07:08:17;;;;;;;29.48;15.40;;;3.70;99.90;;;;;;5072097;28;20035;-56
2022/11/27 07:11:05;;;;;;;28.25;14.43;;;3.70;99.90;;;;;;5073381;28;20029;-55
2022/11/27 07:13:54;;;;;;;32.00;15.10;;;3.70;99.90;;;;;;5090362;28;20036;-54
2022/11/27 07:16:40;;;;;;;23.08;15.43;;;3.70;99.90;;;;;;5091843;28;20032;-54
2022/11/27 07:19:26;;;;;;;22.63;15.52;;;3.70;99.90;;;;;;5088259;28;20024;-51
2022/11/27 07:22:12;;;;;;;24.70;14.88;;;3.70;99.90;;;;;;5089990;28;20043;-49
2022/11/27 07:24:58;;;;;;;23.73;14.95;;;3.80;99.90;;;;;;5074717;28;20035;-52
2022/11/27 07:27:44;;;;;;;24.40;15.13;;;3.80;99.90;;;;;;5060465;28;20107;-48
2022/11/27 07:30:30;;;;;;;24.25;14.45;;;3.70;99.90;;;;;;5074774;28;20024;-52
2022/11/27 07:33:16;;;;;;;28.27;18.15;;;3.70;99.90;;;;;;5088945;28;20043;-55
2022/11/27 07:36:05;;;;;;;22.38;14.55;;;3.60;99.90;;;;;;5088710;28;20032;-54
2022/11/27 07:38:52;;;;;;;25.27;15.55;;;3.60;99.90;;;;;;5089545;28;20396;-54
2022/11/27 07:41:38;;;;;;;35.97;14.80;;;3.50;99.90;;;;;;5087370;28;20028;-51
2022/11/27 07:44:24;;;;;;;20.63;13.90;;;3.60;99.90;;;;;;5075224;28;20032;-54
2022/11/27 07:47:10;;;;;;;22.33;14.60;;;3.60;99.90;;;;;;5075586;28;20020;-52
2022/11/27 07:49:57;;;;;;;18.85;13.63;;;3.60;99.90;;;;;;5088812;28;20020;-54
2022/11/27 07:52:43;;;;;;;22.10;14.52;;;3.60;99.90;;;;;;5070304;28;20515;-52
2022/11/27 07:55:29;;;;;;;20.92;14.13;;;3.70;99.90;;;;;;5092897;28;20077;-52
2022/11/27 07:58:15;;;;;;;21.10;13.63;;;3.70;99.90;;;;;;5110729;28;20080;-54
2022/11/27 08:01:06;;;;;;;22.60;14.23;;;3.80;99.90;;;;;;5102533;28;20060;-56
2022/11/27 08:03:52;;;;;;;21.83;14.23;;;3.90;99.90;;;;;;5076529;28;20024;-52
2022/11/27 08:06:37;;;;;;;23.60;14.63;;;3.90;99.90;;;;;;5062542;28;20028;-50
2022/11/27 08:09:23;;;;;;;21.42;14.85;;;3.90;99.90;;;;;;5071015;28;20052;-50
2022/11/27 08:12:09;;;;;;;25.17;15.15;;;4.00;99.90;;;;;;5086424;28;20027;-55
2022/11/27 08:14:55;;;;;;;24.73;15.85;;;4.00;99.90;;;;;;5089940;28;20028;-59
2022/11/27 08:17:41;;;;;;;22.45;15.80;;;4.00;99.90;;;;;;5069705;28;20025;-50
2022/11/27 08:20:27;;;;;;;23.80;15.82;;;4.00;99.90;;;;;;5089732;28;20043;-50
2022/11/27 08:23:13;;;;;;;24.75;16.17;;;4.00;99.90;;;;;;5089190;28;20519;-50
2022/11/27 08:26:03;;;;;;;23.75;16.45;;;4.10;99.90;;;;;;5089758;28;20468;-50
2022/11/27 08:28:51;;;;;;;27.02;16.88;;;4.10;99.90;;;;;;5069275;28;20055;-50
2022/11/27 08:31:37;;;;;;;27.60;16.45;;;4.10;99.90;;;;;;5071461;28;20031;-50
2022/11/27 08:34:25;;;;;;;26.10;16.60;;;4.20;99.90;;;;;;5069287;28;20116;-54
2022/11/27 08:37:11;;;;;;;27.60;17.10;;;4.30;99.90;;;;;;5084370;28;20032;-55
2022/11/27 08:39:57;;;;;;;26.70;17.25;;;4.40;99.90;;;;;;5073869;28;20032;-50
2022/11/27 08:42:43;;;;;;;27.35;18.77;;;4.50;99.90;;;;;;5090104;28;20414;-57
2022/11/27 08:45:31;;;;;;;30.17;19.67;;;4.60;99.90;;;;;;5070369;28;20028;-54
2022/11/27 08:48:17;;;;;;;26.92;19.88;;;4.60;99.90;;;;;;5065874;28;20475;-51
2022/11/27 08:51:13;;;;;;;24.13;18.80;;;4.70;99.90;;;;;;5079969;28;20027;-54
2022/11/27 08:53:59;;;;;;;26.23;19.58;;;4.80;99.90;;;;;;5081031;28;20020;-53
2022/11/27 08:56:45;;;;;;;33.20;22.23;;;5.00;99.90;;;;;;5079813;28;20107;-55
2022/11/27 08:59:31;;;;;;;34.60;23.35;;;5.00;99.90;;;;;;5099629;28;20031;-55
2022/11/27 09:02:17;;;;;;;30.83;22.00;;;5.10;99.90;;;;;;5092074;28;20028;-57
2022/11/27 09:05:06;;;;;;;29.45;22.27;;;5.10;99.90;;;;;;5087678;28;20028;-55
2022/11/27 09:07:52;;;;;;;32.05;24.20;;;5.10;99.90;;;;;;5080913;28;20377;-57
2022/11/27 09:10:38;;;;;;;38.97;29.10;;;5.20;99.90;;;;;;5078812;28;20027;-57
2022/11/27 09:13:24;;;;;;;34.85;26.80;;;5.20;99.90;;;;;;5086749;28;20032;-55
2022/11/27 09:16:13;;;;;;;35.63;27.55;;;5.20;99.90;;;;;;5078393;28;20037;-57
2022/11/27 09:18:59;;;;;;;34.33;24.15;;;5.20;99.90;;;;;;5035017;28;20111;-56
2022/11/27 09:21:45;;;;;;;28.88;22.15;;;5.30;99.90;;;;;;5072675;28;20044;-55
2022/11/27 09:24:31;;;;;;;28.40;19.02;;;5.30;99.90;;;;;;5103037;28;20080;-52
2022/11/27 09:27:17;;;;;;;26.25;18.95;;;5.20;99.90;;;;;;5075080;28;20400;-55
2022/11/27 09:30:06;;;;;;;27.05;17.27;;;5.20;99.90;;;;;;5088601;28;20406;-52
2022/11/27 09:32:52;;;;;;;21.88;14.88;;;5.30;99.90;;;;;;5090338;28;20030;-55
2022/11/27 09:35:38;;;;;;;39.67;25.90;;;5.40;99.90;;;;;;5084575;28;20031;-55
2022/11/27 09:38:24;;;;;;;76.15;47.95;;;5.60;99.90;;;;;;5089157;28;20488;-56
2022/11/27 09:41:13;;;;;;;18.45;13.75;;;5.90;99.90;;;;;;5086957;28;20032;-51
2022/11/27 09:44:03;;;;;;;406.23;183.80;;;5.90;99.90;;;;;;5085444;28;20059;-56
2022/11/27 09:46:51;;;;;;;115.65;67.72;;;5.80;99.90;;;;;;5084347;28;20016;-57
2022/11/27 09:49:53;;;;;;;50.53;31.30;;;6.20;99.90;;;;;;5063085;28;20106;-59
2022/11/27 09:52:56;;;;;;;30.52;17.08;;;6.50;99.90;;;;;;5081690;28;20054;-56
2022/11/27 09:55:48;;;;;;;20.50;13.45;;;6.70;99.90;;;;;;5076935;28;20027;-53
2022/11/27 09:58:38;;;;;;;18.33;13.23;;;6.40;99.90;;;;;;5097395;28;20791;-57
2022/11/27 10:01:32;;;;;;;23.15;13.82;;;6.20;99.90;;;;;;5086712;28;20069;-55
2022/11/27 10:04:20;;;;;;;20.85;14.00;;;6.10;99.90;;;;;;5092732;28;20020;-56
2022/11/27 10:07:21;;;;;;;20.90;14.07;;;6.10;99.90;;;;;;5085350;28;20044;-55
2022/11/27 10:10:25;;;;;;;19.40;12.35;;;6.10;99.90;;;;;;5057257;28;20044;-56
2022/11/27 10:13:11;;;;;;;16.50;11.88;;;6.10;99.90;;;;;;5084742;28;20121;-58
2022/11/27 10:16:36;;;;;;;19.02;11.35;;;6.10;99.90;;;;;;5079803;28;20032;-57
2022/11/27 10:19:37;;;;;;;15.82;11.60;;;6.20;99.90;;;;;;5083146;28;20035;-58
2022/11/27 10:22:37;;;;;;;21.35;12.55;;;6.10;99.90;;;;;;5085251;28;20086;-58
2022/11/27 10:25:38;;;;;;;20.45;13.32;;;6.20;99.90;;;;;;5075950;28;20025;-56
2022/11/27 10:29:09;;;;;;;17.40;11.50;;;6.30;99.90;;;;;;5080662;28;20109;-58
2022/11/27 10:32:00;;;;;;;83.35;55.45;;;6.40;99.90;;;;;;5011174;28;20443;-57
2022/11/27 10:34:55;;;;;;;46.00;31.40;;;6.50;99.90;;;;;;5083827;28;20672;-59
2022/11/27 10:37:53;;;;;;;20.98;14.57;;;7.30;99.90;;;;;;5068194;28;20035;-58
2022/11/27 10:40:45;;;;;;;26.48;13.55;;;7.60;99.90;;;;;;5085658;28;20032;-58
2022/11/27 10:43:31;;;;;;;17.30;12.60;;;7.80;99.90;;;;;;5093982;28;20024;-55
2022/11/27 10:46:37;;;;;;;18.50;11.98;;;7.60;99.90;;;;;;5076546;28;20024;-55
2022/11/27 10:49:22;;;;;;;;;;;7.20;99.90;;;;;;5077592;28;20102;-52
2022/11/27 10:52:12;;;;;;;;;;;7.10;99.90;;;;;;5076733;28;19912;-57
2022/11/27 10:55:03;;;;;;;20.38;12.02;;;7.10;99.90;;;;;;5091860;28;19947;-61
2022/11/27 10:58:12;;;;;;;16.75;11.95;;;7.10;99.90;;;;;;5074750;28;20032;-54
2022/11/27 11:01:07;;;;;;;16.02;12.00;;;7.20;99.90;;;;;;5076257;28;20024;-57
2022/11/27 11:04:07;;;;;;;14.77;11.00;;;7.10;99.90;;;;;;5091065;28;20024;-56
2022/11/27 11:06:53;;;;;;;17.73;11.20;;;7.30;99.90;;;;;;5091501;28;20099;-53
2022/11/27 11:09:47;;;;;;;19.30;12.18;;;7.40;99.90;;;;;;5073900;28;20024;-58
2022/11/27 11:12:33;;;;;;;21.23;12.18;;;7.40;99.90;;;;;;5089633;28;20017;-56
2022/11/27 11:15:19;;;;;;;17.27;11.57;;;7.50;99.90;;;;;;5074430;28;20032;-57
2022/11/27 11:18:19;;;;;;;17.63;11.90;;;7.60;99.90;;;;;;5088074;28;20438;-57
2022/11/27 11:21:09;;;;;;;15.88;11.43;;;7.50;99.90;;;;;;5072518;28;20074;-57
2022/11/27 11:24:00;;;;;;;19.75;12.23;;;7.50;99.90;;;;;;5069453;28;20111;-59
2022/11/27 11:26:58;;;;;;;22.55;11.68;;;7.60;99.90;;;;;;5077039;28;20016;-57
2022/11/27 11:29:52;;;;;;;19.42;11.80;;;7.70;99.90;;;;;;5075540;28;20044;-55
2022/11/27 11:32:39;;;;;;;21.13;11.90;;;7.90;99.90;;;;;;5090026;28;20027;-57
2022/11/27 11:35:31;;;;;;;16.08;10.85;;;7.90;99.90;;;;;;5092067;28;20036;-55
2022/11/27 11:38:27;;;;;;;15.55;11.00;;;7.80;99.90;;;;;;5091080;28;20020;-56
2022/11/27 11:41:16;;;;;;;13.38;10.25;;;7.60;99.90;;;;;;5088254;28;20510;-52
2022/11/27 11:44:03;;;;;;;16.58;11.15;;;7.70;99.90;;;;;;5086433;28;20485;-58
2022/11/27 11:46:53;;;;;;;16.65;10.93;;;7.60;99.90;;;;;;5082439;28;20430;-53
2022/11/27 11:49:39;;;;;;;15.20;10.57;;;7.70;99.90;;;;;;5071511;28;20019;-58
2022/11/27 11:52:34;;;;;;;19.95;11.38;;;7.70;99.90;;;;;;5078185;28;20040;-56
2022/11/27 11:55:39;;;;;;;14.82;10.32;;;7.60;99.90;;;;;;5086760;28;20028;-57
2022/11/27 11:59:02;;;;;;;16.45;10.85;;;7.60;99.90;;;;;;5091465;28;20036;-57
2022/11/27 12:02:22;;;;;;;14.10;10.07;;;7.80;99.90;;;;;;5063174;28;20039;-58
2022/11/27 12:05:25;;;;;;;16.58;9.88;;;7.90;99.90;;;;;;5082609;28;20106;-58
2022/11/27 12:08:36;;;;;;;28.80;17.92;;;7.90;99.90;;;;;;5089603;28;20024;-56
2022/11/27 12:11:33;;;;;;;20.60;10.65;;;8.00;99.90;;;;;;5089420;28;20511;-59
2022/11/27 12:14:48;;;;;;;14.63;11.00;;;8.10;99.90;;;;;;5087281;28;20326;-56
2022/11/27 12:18:09;;;;;;;13.35;10.05;;;8.00;99.90;;;;;;5102362;28;20158;-56
2022/11/27 12:21:10;;;;;;;12.48;10.00;;;8.10;99.90;;;;;;4988815;28;20093;-57
2022/11/27 12:24:22;;;;;;;15.52;10.05;;;8.20;99.90;;;;;;5089815;28;20055;-56
2022/11/27 12:27:46;;;;;;;14.15;9.90;;;8.40;99.90;;;;;;5074621;28;20052;-56
2022/11/27 12:30:50;;;;;;;16.02;10.57;;;8.40;99.90;;;;;;5077451;28;20079;-56
2022/11/27 12:34:14;;;;;;;16.73;9.68;;;8.50;99.90;;;;;;5089400;28;20020;-58
2022/11/27 12:37:44;;;;;;;18.67;10.85;;;8.40;99.90;;;;;;5071271;28;20034;-60
2022/11/27 12:40:52;;;;;;;21.85;10.52;;;8.40;99.90;;;;;;5089932;28;20056;-58
2022/11/27 12:43:44;;;;;;;18.35;10.07;;;8.40;99.90;;;;;;5089271;28;20035;-56
2022/11/27 12:46:52;;;;;;;19.10;11.77;;;8.60;99.90;;;;;;5091670;28;20054;-55
2022/11/27 12:49:44;;;;;;;19.58;10.13;;;8.80;99.90;;;;;;5090153;28;20020;-58
2022/11/27 12:52:39;;;;;;;18.05;10.38;;;8.70;99.90;;;;;;5090289;28;20487;-58
2022/11/27 12:55:29;;;;;;;17.65;10.50;;;8.50;99.90;;;;;;5064626;28;20119;-55
2022/11/27 12:58:27;;;;;;;14.15;9.95;;;8.40;99.90;;;;;;5069588;28;20116;-58
2022/11/27 13:01:21;;;;;;;17.60;9.90;;;8.30;99.90;;;;;;5085833;28;20089;-55
2022/11/27 13:04:33;;;;;;;16.25;10.30;;;8.30;99.90;;;;;;5088105;28;20515;-56
2022/11/27 13:07:45;;;;;;;19.02;10.50;;;8.30;99.90;;;;;;5087561;28;20400;-57
2022/11/27 13:10:41;;;;;;;26.60;10.40;;;8.40;99.90;;;;;;5090844;28;20025;-56
2022/11/27 13:13:42;;;;;;;17.83;10.00;;;8.60;99.90;;;;;;5073981;28;20036;-63
2022/11/27 13:16:34;;;;;;;18.85;10.55;;;8.70;99.90;;;;;;5089154;28;20031;-57
2022/11/27 13:19:39;;;;;;;14.68;9.40;;;8.70;99.90;;;;;;5073416;28;20028;-56
2022/11/27 13:22:30;;;;;;;17.83;9.90;;;8.70;99.90;;;;;;5070120;28;20386;-58
2022/11/27 13:25:17;;;;;;;14.98;9.38;;;8.70;99.90;;;;;;5074952;28;20046;-54
2022/11/27 13:28:04;;;;;;;15.95;9.95;;;8.90;99.90;;;;;;5088587;28;20036;-60
2022/11/27 13:30:53;;;;;;;15.30;10.10;;;9.00;99.90;;;;;;5071391;28;20358;-56
2022/11/27 13:33:42;;;;;;;14.90;9.63;;;9.00;99.90;;;;;;5086458;28;20032;-54
2022/11/27 13:36:56;;;;;;;16.52;10.68;;;9.20;99.90;;;;;;5069147;28;20060;-53
2022/11/27 13:39:42;;;;;;;16.70;10.10;;;9.30;99.90;;;;;;5075291;28;20040;-56
2022/11/27 13:42:28;;;;;;;20.45;12.15;;;9.30;99.90;;;;;;5101443;28;20107;-56
2022/11/27 13:45:21;;;;;;;13.93;10.50;;;9.10;99.90;;;;;;5109923;28;20071;-54
2022/11/27 13:48:29;;;;;;;16.20;10.10;;;8.90;99.90;;;;;;5092607;28;20487;-57
2022/11/27 13:51:24;;;;;;;14.55;10.65;;;8.90;99.90;;;;;;5058734;28;20032;-56
2022/11/27 13:54:17;;;;;;;17.85;9.95;;;9.00;99.90;;;;;;5074611;28;20409;-57
2022/11/27 13:57:16;;;;;;;20.75;13.48;;;9.10;99.90;;;;;;5091747;28;20036;-56
2022/11/27 14:00:09;;;;;;;14.80;11.02;;;9.10;99.90;;;;;;5090411;28;20025;-52
2022/11/27 14:02:55;;;;;;;18.55;12.35;;;9.30;99.90;;;;;;5085168;28;20040;-55
2022/11/27 14:05:43;;;;;;;21.02;11.95;;;9.40;99.90;;;;;;5073819;28;20032;-55
2022/11/27 14:08:33;;;;;;;20.17;10.70;;;9.40;99.90;;;;;;5088612;28;20491;-58
2022/11/27 14:11:42;;;;;;;17.48;10.73;;;9.20;99.90;;;;;;5080584;28;20038;-58
2022/11/27 14:14:29;;;;;;;21.83;11.75;;;9.00;99.90;;;;;;5084721;28;20035;-58
2022/11/27 14:17:26;;;;;;;18.58;10.40;;;8.70;99.90;;;;;;5103733;28;20730;-60
2022/11/27 14:20:15;;;;;;;45.92;13.95;;;8.50;99.90;;;;;;5083801;28;20044;-59
2022/11/27 14:23:01;;;;;;;24.02;12.10;;;8.20;99.90;;;;;;5091932;28;20437;-59
2022/11/27 14:25:47;;;;;;;20.65;13.25;;;8.10;99.90;;;;;;5092162;28;20072;-58
2022/11/27 14:28:35;;;;;;;21.42;10.82;;;8.00;99.90;;;;;;5075704;28;20024;-59
2022/11/27 14:31:26;;;;;;;19.45;11.75;;;7.90;99.90;;;;;;5072179;28;20112;-59
2022/11/27 14:34:25;;;;;;;18.42;11.65;;;7.80;99.90;;;;;;5090889;28;20030;-56
2022/11/27 14:37:37;;;;;;;21.02;12.45;;;7.70;99.90;;;;;;5088288;28;20039;-61
2022/11/27 14:40:26;;;;;;;23.20;11.15;;;7.60;99.90;;;;;;5077053;28;20040;-56